Time;durP1;ratioP1;P1;durP2;ratioP2;P2;SDS_P1;SDS_P2;PMS_P1;PMS_P2;Temp;Humidity;BMP_temperature;BMP_pressure;BME280_temperature;BME280_humidity;BME280_pressure;Samples;Min_cycle;Max_cycle;Signal;HPM_P1;HPM_P2
2023/03/24 00:00:27;;;;;;;;;;;;;;;10.87;100;99683.63;;;;-75
2023/03/24 00:05:27;;;;;;;;;;;;;;;10.89;100;99677.85;;;;-77
2023/03/24 00:10:24;;;;;;;;;;;;;;;10.87;100;99672.89;;;;-75
2023/03/24 00:12:44;;;;;;;14.6;3.6;;;;;;;;;;;;;-75
2023/03/24 00:15:28;;;;;;;;;;;;;;;10.87;100;99654.73;;;;-77
2023/03/24 00:20:25;;;;;;;;;;;;;;;10.87;100;99656.88;;;;-76
2023/03/24 00:25:26;;;;;;;;;;;;;;;10.88;100;99644.26;;;;-76
2023/03/24 00:30:24;;;;;;;;;;;;;;;10.88;100;99638.48;;;;-75
2023/03/24 00:35:27;;;;;;;;;;;;;;;10.88;100;99626.88;;;;-75
2023/03/24 00:40:26;;;;;;;;;;;;;;;10.89;100;99610.28;;;;-76
2023/03/24 00:42:47;;;;;;;7.5;3.1;;;;;;;;;;;;;-75
2023/03/24 00:45:25;;;;;;;;;;;;;;;10.9;100;99620.5;;;;-75
2023/03/24 00:50:28;;;;;;;;;;;;;;;10.91;100;99595.41;;;;-74
2023/03/24 00:55:27;;;;;;;;;;;;;;;10.91;100;99580.3;;;;-74
2023/03/24 01:00:28;;;;;;;;;;;;;;;10.94;100;99586.11;;;;-75
2023/03/24 01:05:29;;;;;;;;;;;;;;;10.96;100;99578.28;;;;-76
2023/03/24 01:10:29;;;;;;;;;;;;;;;10.97;100;99557.86;;;;-75
2023/03/24 01:12:53;;;;;;;6.8;3.2;;;;;;;;;;;;;-75
2023/03/24 01:15:25;;;;;;;;;;;;;;;11;100;99561.1;;;;-75
2023/03/24 01:20:27;;;;;;;;;;;;;;;11.01;100;99558.48;;;;-75
2023/03/24 01:25:26;;;;;;;;;;;;;;;11.02;100;99555.05;;;;-74
2023/03/24 01:30:26;;;;;;;;;;;;;;;11.03;100;99543.91;;;;-76
2023/03/24 01:35:25;;;;;;;;;;;;;;;11.06;100;99560.91;;;;-75
2023/03/24 01:40:30;;;;;;;;;;;;;;;11.07;100;99549.38;;;;-76
2023/03/24 01:42:50;;;;;;;5.7;2.7;;;;;;;;;;;;;-75
2023/03/24 01:45:35;;;;;;;;;;;;;;;11.08;100;99557.22;;;;-75
2023/03/24 01:50:28;;;;;;;;;;;;;;;11.08;100;99561.02;;;;-74
2023/03/24 01:55:24;;;;;;;;;;;;;;;11.07;100;99581.83;;;;-75
2023/03/24 02:00:27;;;;;;;;;;;;;;;11.09;100;99592.66;;;;-75
2023/03/24 02:05:28;;;;;;;;;;;;;;;11.08;100;99613.66;;;;-74
2023/03/24 02:10:28;;;;;;;;;;;;;;;10.98;100;99645.05;;;;-76
2023/03/24 02:12:58;;;;;;;6;1.8;;;;;;;;;;;;;-75
2023/03/24 02:15:25;;;;;;;;;;;;;;;10.85;100;99628.59;;;;-75
2023/03/24 02:20:35;;;;;;;;;;;;;;;10.76;100;99632.7;;;;-75
2023/03/24 02:25:45;;;;;;;;;;;;;;;10.65;100;99648.46;;;;-76
2023/03/24 02:30:40;;;;;;;;;;;;;;;10.57;100;99651.28;;;;-75
2023/03/24 02:35:40;;;;;;;;;;;;;;;10.47;100;99656.1;;;;-74
2023/03/24 02:40:31;;;;;;;;;;;;;;;10.39;100;99682.53;;;;-75
2023/03/24 02:42:59;;;;;;;4.1;1;;;;;;;;;;;;;-75
2023/03/24 02:45:27;;;;;;;;;;;;;;;10.3;100;99683.13;;;;-74
2023/03/24 02:50:30;;;;;;;;;;;;;;;10.21;100;99697.55;;;;-75
2023/03/24 02:55:29;;;;;;;;;;;;;;;10.13;100;99707.17;;;;-75
2023/03/24 03:00:28;;;;;;;;;;;;;;;10.04;100;99711.45;;;;-75
2023/03/24 03:05:35;;;;;;;;;;;;;;;10.01;100;99719.84;;;;-76
2023/03/24 03:10:36;;;;;;;;;;;;;;;9.93;100;99724.3;;;;-75
2023/03/24 03:12:55;;;;;;;9.2;1.4;;;;;;;;;;;;;-75
2023/03/24 03:15:38;;;;;;;;;;;;;;;9.85;100;99734.75;;;;-75
2023/03/24 03:20:33;;;;;;;;;;;;;;;9.74;100;99747.48;;;;-75
2023/03/24 03:25:25;;;;;;;;;;;;;;;9.68;100;99752.2;;;;-76
2023/03/24 03:30:27;;;;;;;;;;;;;;;9.59;100;99757.19;;;;-74
2023/03/24 03:35:27;;;;;;;;;;;;;;;9.5;100;99766.19;;;;-75
2023/03/24 03:40:27;;;;;;;;;;;;;;;9.44;100;99750.23;;;;-75
2023/03/24 03:42:54;;;;;;;5.7;1.4;;;;;;;;;;;;;-74
2023/03/24 03:45:26;;;;;;;;;;;;;;;9.37;100;99771.05;;;;-75
2023/03/24 03:50:24;;;;;;;;;;;;;;;9.32;100;99775.8;;;;-74
2023/03/24 03:55:25;;;;;;;;;;;;;;;9.24;100;99785.03;;;;-75
2023/03/24 04:00:24;;;;;;;;;;;;;;;9.16;100;99792;;;;-74
2023/03/24 04:05:30;;;;;;;;;;;;;;;9.12;100;99799.34;;;;-75
2023/03/24 04:10:31;;;;;;;;;;;;;;;9.07;100;99804.72;;;;-75
2023/03/24 04:13:01;;;;;;;4.6;1.1;;;;;;;;;;;;;-75
2023/03/24 04:15:29;;;;;;;;;;;;;;;9.03;100;99799.69;;;;-75
2023/03/24 04:20:27;;;;;;;;;;;;;;;8.97;100;99816.55;;;;-75
2023/03/24 04:25:30;;;;;;;;;;;;;;;8.95;100;99819.08;;;;-75
2023/03/24 04:30:29;;;;;;;;;;;;;;;8.92;100;99829.14;;;;-75
2023/03/24 04:35:30;;;;;;;;;;;;;;;8.87;100;99833.92;;;;-75
2023/03/24 04:40:25;;;;;;;;;;;;;;;8.84;100;99842.98;;;;-75
2023/03/24 04:42:56;;;;;;;6;1.2;;;;;;;;;;;;;-75
2023/03/24 04:45:24;;;;;;;;;;;;;;;8.79;100;99852.01;;;;-75
2023/03/24 04:50:35;;;;;;;;;;;;;;;8.77;100;99858.11;;;;-76
2023/03/24 04:55:32;;;;;;;;;;;;;;;8.75;100;99870.47;;;;-75
2023/03/24 05:00:24;;;;;;;;;;;;;;;8.74;100;99866.59;;;;-75
2023/03/24 05:05:24;;;;;;;;;;;;;;;8.7;100;99871.81;;;;-74
2023/03/24 05:10:24;;;;;;;;;;;;;;;8.65;100;99881.59;;;;-76
2023/03/24 05:13:03;;;;;;;8.9;1.3;;;;;;;;;;;;;-75
2023/03/24 05:15:24;;;;;;;;;;;;;;;8.63;100;99879.78;;;;-75
2023/03/24 05:20:24;;;;;;;;;;;;;;;8.62;100;99892.49;;;;-76
2023/03/24 05:25:24;;;;;;;;;;;;;;;8.54;100;99901.02;;;;-75
2023/03/24 05:30:24;;;;;;;;;;;;;;;8.53;100;99904.02;;;;-76
2023/03/24 05:35:24;;;;;;;;;;;;;;;8.52;100;99904.39;;;;-75
2023/03/24 05:40:24;;;;;;;;;;;;;;;8.49;100;99918.13;;;;-75
2023/03/24 05:42:57;;;;;;;10.8;1.9;;;;;;;;;;;;;-75
2023/03/24 05:45:24;;;;;;;;;;;;;;;8.45;100;99931.5;;;;-74
2023/03/24 05:50:24;;;;;;;;;;;;;;;8.46;100;99932.88;;;;-75
2023/03/24 05:55:24;;;;;;;;;;;;;;;8.46;100;99934.52;;;;-75
2023/03/24 06:00:25;;;;;;;;;;;;;;;8.48;100;99933.32;;;;-75
2023/03/24 06:05:24;;;;;;;;;;;;;;;8.5;100;99951.08;;;;-75
2023/03/24 06:10:29;;;;;;;;;;;;;;;8.53;100;99949.36;;;;-74
2023/03/24 06:12:59;;;;;;;12;2.1;;;;;;;;;;;;;-75
2023/03/24 06:15:26;;;;;;;;;;;;;;;8.57;100;99968.63;;;;-74
2023/03/24 06:20:24;;;;;;;;;;;;;;;8.58;100;99969.08;;;;-75
2023/03/24 06:25:26;;;;;;;;;;;;;;;8.62;100;99977.39;;;;-75
2023/03/24 06:30:24;;;;;;;;;;;;;;;8.62;100;99976.33;;;;-74
2023/03/24 06:35:24;;;;;;;;;;;;;;;8.65;100;99991.63;;;;-75
2023/03/24 06:40:29;;;;;;;;;;;;;;;8.66;100;99983.69;;;;-75
2023/03/24 06:42:59;;;;;;;18.8;2.2;;;;;;;;;;;;;-74
2023/03/24 06:45:26;;;;;;;;;;;;;;;8.71;100;99999.2;;;;-74
2023/03/24 06:50:25;;;;;;;;;;;;;;;8.73;100;99982.08;;;;-77
2023/03/24 06:55:24;;;;;;;;;;;;;;;8.77;100;99988.51;;;;-75
2023/03/24 07:00:24;;;;;;;;;;;;;;;8.83;100;99995.92;;;;-75
2023/03/24 07:05:24;;;;;;;;;;;;;;;8.91;100;100020.8;;;;-75
2023/03/24 07:10:24;;;;;;;;;;;;;;;8.97;100;100019.2;;;;-75
2023/03/24 07:13:02;;;;;;;17.8;2.4;;;;;;;;;;;;;-75
2023/03/24 07:15:24;;;;;;;;;;;;;;;9.01;100;100027.4;;;;-74
2023/03/24 07:20:24;;;;;;;;;;;;;;;9.04;100;100027.2;;;;-75
2023/03/24 07:25:24;;;;;;;;;;;;;;;9.09;100;100050.5;;;;-75
2023/03/24 07:30:24;;;;;;;;;;;;;;;9.15;100;100054.5;;;;-75
2023/03/24 07:35:24;;;;;;;;;;;;;;;9.25;100;100073.1;;;;-75
2023/03/24 07:40:24;;;;;;;;;;;;;;;9.33;100;100067.5;;;;-75
2023/03/24 07:43:03;;;;;;;23.7;3.1;;;;;;;;;;;;;-75
2023/03/24 07:45:24;;;;;;;;;;;;;;;9.5;100;100063.6;;;;-75
2023/03/24 07:50:24;;;;;;;;;;;;;;;9.62;100;100069.9;;;;-75
2023/03/24 07:55:24;;;;;;;;;;;;;;;9.76;100;100076.7;;;;-76
2023/03/24 08:00:28;;;;;;;;;;;;;;;9.93;100;100076.7;;;;-75
2023/03/24 08:05:24;;;;;;;;;;;;;;;10.14;100;100103.5;;;;-76
2023/03/24 08:10:25;;;;;;;;;;;;;;;10.15;99.87402;100098.1;;;;-75
2023/03/24 08:13:03;;;;;;;14.8;2.1;;;;;;;;;;;;;-75
2023/03/24 08:15:24;;;;;;;;;;;;;;;10.28;99.51855;100096.3;;;;-75
2023/03/24 08:20:26;;;;;;;;;;;;;;;10.39;98.46777;100101.3;;;;-75
2023/03/24 08:25:28;;;;;;;;;;;;;;;10.58;97.79297;100113.2;;;;-75
2023/03/24 08:30:27;;;;;;;;;;;;;;;10.74;96.18652;100111.3;;;;-76
2023/03/24 08:35:25;;;;;;;;;;;;;;;10.78;95.83301;100125.5;;;;-75
2023/03/24 08:40:26;;;;;;;;;;;;;;;10.74;95.57129;100144.3;;;;-76
2023/03/24 08:43:07;;;;;;;21;2.5;;;;;;;;;;;;;-76
2023/03/24 08:45:26;;;;;;;;;;;;;;;10.71;96.21387;100140.3;;;;-75
2023/03/24 08:50:26;;;;;;;;;;;;;;;10.8;95.66211;100140.6;;;;-75
2023/03/24 08:55:24;;;;;;;;;;;;;;;10.9;95.05371;100161.1;;;;-75
2023/03/24 09:00:30;;;;;;;;;;;;;;;10.96;94.76855;100147.5;;;;-74
2023/03/24 09:05:24;;;;;;;;;;;;;;;11.14;94.33496;100158.1;;;;-76
2023/03/24 09:10:27;;;;;;;;;;;;;;;11.31;93.99512;100163.1;;;;-74
2023/03/24 09:13:10;;;;;;;17.3;2.3;;;;;;;;;;;;;-75
2023/03/24 09:15:24;;;;;;;;;;;;;;;11.43;91.86719;100164.9;;;;-74
2023/03/24 09:20:24;;;;;;;;;;;;;;;11.62;91.7959;100164;;;;-75
2023/03/24 09:25:26;;;;;;;;;;;;;;;11.81;91.17285;100175.1;;;;-75
2023/03/24 09:30:24;;;;;;;;;;;;;;;11.97;90.01172;100174;;;;-75
2023/03/24 09:35:26;;;;;;;;;;;;;;;12.26;89.49512;100179;;;;-75
2023/03/24 09:40:28;;;;;;;;;;;;;;;12.17;88.69043;100182.7;;;;-75
2023/03/24 09:43:08;;;;;;;15.5;2.2;;;;;;;;;;;;;-75
2023/03/24 09:45:25;;;;;;;;;;;;;;;12.33;88.20215;100180.8;;;;-76
2023/03/24 09:50:28;;;;;;;;;;;;;;;12.55;87.60059;100180.4;;;;-75
2023/03/24 09:55:26;;;;;;;;;;;;;;;12.62;87.20508;100191.7;;;;-76
2023/03/24 10:00:26;;;;;;;;;;;;;;;12.72;86.66992;100202.4;;;;-75
2023/03/24 10:05:25;;;;;;;;;;;;;;;12.92;86.59863;100200.9;;;;-74
2023/03/24 10:10:29;;;;;;;;;;;;;;;12.87;86.7002;100200.7;;;;-74
2023/03/24 10:13:16;;;;;;;12.9;1.6;;;;;;;;;;;;;-74
2023/03/24 10:15:28;;;;;;;;;;;;;;;12.71;86.64648;100208;;;;-75
2023/03/24 10:20:31;;;;;;;;;;;;;;;12.52;86.73047;100205.6;;;;-75
2023/03/24 10:25:27;;;;;;;;;;;;;;;12.56;86.72852;100205.8;;;;-72
2023/03/24 10:30:25;;;;;;;;;;;;;;;12.79;86.83984;100209.3;;;;-71
2023/03/24 10:35:26;;;;;;;;;;;;;;;12.98;86.16699;100206.7;;;;-73
2023/03/24 10:40:28;;;;;;;;;;;;;;;12.96;84.89648;100208.9;;;;-72
2023/03/24 10:43:09;;;;;;;11.9;1.7;;;;;;;;;;;;;-74
2023/03/24 10:45:28;;;;;;;;;;;;;;;12.93;84.63477;100227.2;;;;-71
2023/03/24 10:50:27;;;;;;;;;;;;;;;12.84;85.4502;100210.7;;;;-72
2023/03/24 10:55:25;;;;;;;;;;;;;;;12.77;85.44824;100228.9;;;;-72
2023/03/24 11:00:28;;;;;;;;;;;;;;;12.74;84.22168;100218.4;;;;-72
2023/03/24 11:05:28;;;;;;;;;;;;;;;12.99;84.25586;100211.3;;;;-75
2023/03/24 11:10:27;;;;;;;;;;;;;;;13.04;83.39941;100226.6;;;;-75
2023/03/24 11:13:19;;;;;;;11.8;1.8;;;;;;;;;;;;;-75
2023/03/24 11:15:27;;;;;;;;;;;;;;;13.07;82.60547;100224.2;;;;-75
2023/03/24 11:20:27;;;;;;;;;;;;;;;13.16;82.77832;100219.7;;;;-74
2023/03/24 11:25:28;;;;;;;;;;;;;;;13.16;83.52148;100214;;;;-75
2023/03/24 11:30:24;;;;;;;;;;;;;;;13.21;84.07715;100222.7;;;;-76
2023/03/24 11:35:30;;;;;;;;;;;;;;;13.32;82.00586;100213;;;;-74
2023/03/24 11:40:25;;;;;;;;;;;;;;;13.27;82.47656;100222.8;;;;-74
2023/03/24 11:43:22;;;;;;;11.6;1.8;;;;;;;;;;;;;-75
2023/03/24 11:45:31;;;;;;;;;;;;;;;13.28;82.08887;100224.6;;;;-73
2023/03/24 11:50:27;;;;;;;;;;;;;;;13.32;81.40527;100232.5;;;;-74
2023/03/24 11:55:27;;;;;;;;;;;;;;;13.4;82.38867;100231.5;;;;-75
2023/03/24 12:00:28;;;;;;;;;;;;;;;13.5;82.41895;100240.9;;;;-74
2023/03/24 12:05:38;;;;;;;;;;;;;;;13.67;82.34863;100239.1;;;;-74
2023/03/24 12:10:31;;;;;;;;;;;;;;;13.78;81.52441;100223.7;;;;-75
2023/03/24 12:13:24;;;;;;;12;1.8;;;;;;;;;;;;;-74
2023/03/24 12:15:37;;;;;;;;;;;;;;;13.65;81.64355;100226.7;;;;-73
2023/03/24 12:20:33;;;;;;;;;;;;;;;13.58;80.73926;100219;;;;-75
2023/03/24 12:25:30;;;;;;;;;;;;;;;13.63;81.44043;100241.8;;;;-75
2023/03/24 12:30:30;;;;;;;;;;;;;;;13.59;80.96582;100232.5;;;;-76
2023/03/24 12:35:45;;;;;;;;;;;;;;;13.53;79.94043;100220.3;;;;-76
2023/03/24 12:40:44;;;;;;;;;;;;;;;13.55;81.58105;100213.8;;;;-76
2023/03/24 12:43:25;;;;;;;9.4;1.4;;;;;;;;;;;;;-76
2023/03/24 12:45:44;;;;;;;;;;;;;;;13.46;80.42969;100218.5;;;;-74
2023/03/24 12:50:48;;;;;;;;;;;;;;;13.53;81.00781;100212.5;;;;-74
2023/03/24 12:55:27;;;;;;;;;;;;;;;13.54;80.25488;100210.8;;;;-75
2023/03/24 13:00:27;;;;;;;;;;;;;;;13.52;80.55078;100205;;;;-75
2023/03/24 13:05:29;;;;;;;;;;;;;;;13.59;80.19727;100201.5;;;;-74
2023/03/24 13:10:28;;;;;;;;;;;;;;;13.56;80.50195;100200.6;;;;-76
2023/03/24 13:13:21;;;;;;;11.3;1.8;;;;;;;;;;;;;-73
2023/03/24 13:15:29;;;;;;;;;;;;;;;13.54;79.9541;100202.1;;;;-76
2023/03/24 13:20:30;;;;;;;;;;;;;;;13.61;80.54688;100199;;;;-75
2023/03/24 13:25:30;;;;;;;;;;;;;;;13.65;79.93945;100184.7;;;;-75
2023/03/24 13:34:41;;;;;;;;;;;;;;;13.69;79.95898;100189.3;;;;-75
2023/03/24 13:39:42;;;;;;;;;;;;;;;13.69;80.17969;100195.5;;;;-74
2023/03/24 13:43:32;;;;;;;11.5;1.7;;;;;;;;;;;;;-75
2023/03/24 13:44:46;;;;;;;;;;;;;;;13.54;79.58496;100179.4;;;;-75
2023/03/24 13:49:52;;;;;;;;;;;;;;;13.5;79.14258;100189.2;;;;-75
2023/03/24 13:54:46;;;;;;;;;;;;;;;13.57;79.22363;100186.1;;;;-75
2023/03/24 13:59:58;;;;;;;;;;;;;;;;;;;;;
2023/03/24 14:09:37;;;;;;;;;;;;;;;13.58;79.41309;100181.7;;;;-74
2023/03/24 14:13:26;;;;;;;10.3;1.5;;;;;;;;;;;;;-75
2023/03/24 14:14:30;;;;;;;;;;;;;;;13.57;78.07617;100175.5;;;;-75
2023/03/24 14:19:41;;;;;;;;;;;;;;;13.6;78.4375;100180.6;;;;-76
2023/03/24 14:24:35;;;;;;;;;;;;;;;13.66;79.17383;100179;;;;-74
2023/03/24 14:29:45;;;;;;;;;;;;;;;13.55;77.9502;100174.5;;;;-76
2023/03/24 14:39:49;;;;;;;;;;;;;;;13.43;79.35352;100170.5;;;;-75
2023/03/24 14:43:27;;;;;;;13.7;2.1;;;;;;;;;;;;;-74
2023/03/24 14:44:42;;;;;;;;;;;;;;;13.46;79.02637;100164;;;;-75
2023/03/24 14:49:32;;;;;;;;;;;;;;;13.48;78.8623;100152.1;;;;-76
2023/03/24 14:54:31;;;;;;;;;;;;;;;13.49;79.13086;100151.4;;;;-74
2023/03/24 14:59:34;;;;;;;;;;;;;;;13.44;78.26465;100149.7;;;;-75
2023/03/24 15:04:32;;;;;;;;;;;;;;;13.43;78.10449;100142.7;;;;-74
2023/03/24 15:09:32;;;;;;;;;;;;;;;13.41;78.83789;100146.9;;;;-75
2023/03/24 15:13:35;;;;;;;11.7;1.7;;;;;;;;;;;;;-74
2023/03/24 15:14:30;;;;;;;;;;;;;;;13.38;77.96387;100151.9;;;;-74
2023/03/24 15:19:32;;;;;;;;;;;;;;;13.29;76.90039;100140.7;;;;-74
2023/03/24 15:24:34;;;;;;;;;;;;;;;13.24;78.0625;100146.6;;;;-74
2023/03/24 15:29:31;;;;;;;;;;;;;;;13.23;77.30176;100139.5;;;;-75
2023/03/24 15:34:32;;;;;;;;;;;;;;;13.2;77.70898;100123.1;;;;-75
2023/03/24 15:39:32;;;;;;;;;;;;;;;13.18;77.69336;100130.9;;;;-75
2023/03/24 15:43:29;;;;;;;10.2;1.7;;;;;;;;;;;;;-74
2023/03/24 15:44:32;;;;;;;;;;;;;;;13.07;78.47754;100119.3;;;;-75
2023/03/24 15:49:33;;;;;;;;;;;;;;;13;77.28418;100120.9;;;;-75
2023/03/24 15:54:33;;;;;;;;;;;;;;;13;77.94043;100117.7;;;;-75
2023/03/24 15:59:35;;;;;;;;;;;;;;;12.93;77.33789;100112.8;;;;-75
2023/03/24 16:04:33;;;;;;;;;;;;;;;12.89;77.32227;100106.1;;;;-75
2023/03/24 16:10:02;;;;;;;;;;;;;;;12.82;77.25195;100105.2;;;;-76
2023/03/24 16:13:31;;;;;;;9.1;1.4;;;;;;;;;;;;;-75
2023/03/24 16:14:31;;;;;;;;;;;;;;;12.73;77.34668;100104.4;;;;-75
2023/03/24 16:19:33;;;;;;;;;;;;;;;12.71;77.41113;100109.5;;;;-76
2023/03/24 16:24:29;;;;;;;;;;;;;;;12.55;78.42773;100108.8;;;;-73
2023/03/24 16:29:29;;;;;;;;;;;;;;;12.49;77.52832;100090.3;;;;-76
2023/03/24 16:34:30;;;;;;;;;;;;;;;12.46;78.31152;100099.9;;;;-77
2023/03/24 16:39:30;;;;;;;;;;;;;;;12.44;77.87402;100096.4;;;;-75
2023/03/24 16:43:33;;;;;;;8.8;1.4;;;;;;;;;;;;;-75
2023/03/24 16:44:29;;;;;;;;;;;;;;;12.34;78.54688;100097.3;;;;-74
2023/03/24 16:49:29;;;;;;;;;;;;;;;12.26;79.01953;100091;;;;-76
2023/03/24 16:54:29;;;;;;;;;;;;;;;12.13;79.04102;100100.3;;;;-76
2023/03/24 16:59:29;;;;;;;;;;;;;;;12.04;79.80273;100094.2;;;;-75
2023/03/24 17:04:32;;;;;;;;;;;;;;;11.92;79.11523;100093.6;;;;-74
2023/03/24 17:09:31;;;;;;;;;;;;;;;11.8;79.65918;100084.7;;;;-76
2023/03/24 17:13:35;;;;;;;13.6;1.5;;;;;;;;;;;;;-76
2023/03/24 17:14:31;;;;;;;;;;;;;;;11.73;80.01465;100084.4;;;;-75
2023/03/24 17:19:30;;;;;;;;;;;;;;;11.65;80.06543;100089.4;;;;-74
2023/03/24 17:24:34;;;;;;;;;;;;;;;11.55;80.70215;100082.1;;;;-75
2023/03/24 17:29:30;;;;;;;;;;;;;;;11.46;79.98438;100090.1;;;;-75
2023/03/24 17:34:31;;;;;;;;;;;;;;;11.41;80.30762;100076.7;;;;-75
2023/03/24 17:39:32;;;;;;;;;;;;;;;11.29;80.84375;100072.7;;;;-74
2023/03/24 17:43:36;;;;;;;6.8;1;;;;;;;;;;;;;-75
2023/03/24 17:44:29;;;;;;;;;;;;;;;11.2;80.2832;100068.8;;;;-76
2023/03/24 17:49:33;;;;;;;;;;;;;;;11.13;80.9668;100066.8;;;;-75
2023/03/24 17:59:30;;;;;;;;;;;;;;;10.95;80.60254;100066.9;;;;-76
2023/03/24 18:04:30;;;;;;;;;;;;;;;10.87;80.22168;100074.7;;;;-75
2023/03/24 18:09:33;;;;;;;;;;;;;;;10.75;80.12305;100077;;;;-75
2023/03/24 18:13:38;;;;;;;8.6;1.5;;;;;;;;;;;;;-76
2023/03/24 18:14:30;;;;;;;;;;;;;;;10.71;80.04785;100066.1;;;;-75
2023/03/24 18:19:29;;;;;;;;;;;;;;;10.63;80.69824;100076.3;;;;-75
2023/03/24 18:24:29;;;;;;;;;;;;;;;10.53;79.4502;100071.5;;;;-74
2023/03/24 18:29:31;;;;;;;;;;;;;;;10.41;79.7832;100079.6;;;;-75
2023/03/24 18:34:30;;;;;;;;;;;;;;;10.33;80.02441;100080.2;;;;-75
2023/03/24 18:39:30;;;;;;;;;;;;;;;10.28;79.72656;100079;;;;-76
2023/03/24 18:43:39;;;;;;;6.4;0.9;;;;;;;;;;;;;-75
2023/03/24 18:44:30;;;;;;;;;;;;;;;10.22;80.26953;100073.9;;;;-75
2023/03/24 18:49:32;;;;;;;;;;;;;;;10.15;80.75391;100077.6;;;;-75
2023/03/24 18:54:30;;;;;;;;;;;;;;;10.07;81.05859;100092.5;;;;-75
2023/03/24 18:59:31;;;;;;;;;;;;;;;10.06;81.2334;100089.4;;;;-75
2023/03/24 19:04:29;;;;;;;;;;;;;;;10;81.85156;100102.8;;;;-76
2023/03/24 19:09:29;;;;;;;;;;;;;;;9.94;82.46875;100088.7;;;;-76
2023/03/24 19:13:42;;;;;;;9.7;1.5;;;;;;;;;;;;;-75
2023/03/24 19:14:30;;;;;;;;;;;;;;;9.91;82.91699;100099.6;;;;-75
2023/03/24 19:19:30;;;;;;;;;;;;;;;9.84;83.23438;100089.5;;;;-75
2023/03/24 19:24:30;;;;;;;;;;;;;;;9.8;84.17773;100066.8;;;;-75
2023/03/24 19:29:38;;;;;;;;;;;;;;;9.76;83.72754;100085.4;;;;-75
2023/03/24 19:34:30;;;;;;;;;;;;;;;9.74;84.17676;100075.1;;;;-75
2023/03/24 19:39:36;;;;;;;;;;;;;;;9.71;84.21387;100076.4;;;;-75
2023/03/24 19:43:46;;;;;;;11.7;1.6;;;;;;;;;;;;;-76
2023/03/24 19:44:31;;;;;;;;;;;;;;;9.7;84.14746;100084.3;;;;-76
2023/03/24 19:49:32;;;;;;;;;;;;;;;9.67;84.52637;100077.7;;;;-75
2023/03/24 19:54:32;;;;;;;;;;;;;;;9.61;84.52441;100067.8;;;;-75
2023/03/24 20:04:31;;;;;;;;;;;;;;;9.54;85.15234;100065.5;;;;-76
2023/03/24 20:09:30;;;;;;;;;;;;;;;9.49;85.19824;100071.3;;;;-74
2023/03/24 20:13:47;;;;;;;9.5;1.5;;;;;;;;;;;;;-76
2023/03/24 20:14:30;;;;;;;;;;;;;;;9.45;85.10254;100051.6;;;;-75
2023/03/24 20:19:31;;;;;;;;;;;;;;;9.45;85.17969;100058.2;;;;-76
2023/03/24 20:24:30;;;;;;;;;;;;;;;9.4;85.27734;100040.6;;;;-75
2023/03/24 20:29:30;;;;;;;;;;;;;;;9.37;85.42871;100045.6;;;;-77
2023/03/24 20:34:32;;;;;;;;;;;;;;;9.34;85.38672;100059.2;;;;-77
2023/03/24 20:39:33;;;;;;;;;;;;;;;9.32;85.40527;100053.6;;;;-74
2023/03/24 20:43:45;;;;;;;11.1;1.5;;;;;;;;;;;;;-74
2023/03/24 20:44:30;;;;;;;;;;;;;;;9.28;85.63086;100043.8;;;;-75
2023/03/24 20:49:30;;;;;;;;;;;;;;;9.29;85.97266;100059;;;;-76
2023/03/24 20:54:31;;;;;;;;;;;;;;;9.29;85.88477;100057.8;;;;-74
2023/03/24 20:59:31;;;;;;;;;;;;;;;9.29;85.75195;100054.3;;;;-76
2023/03/24 21:04:32;;;;;;;;;;;;;;;9.27;85.80371;100031.2;;;;-74
2023/03/24 21:09:31;;;;;;;;;;;;;;;9.25;86.30664;100037.8;;;;-75
2023/03/24 21:13:46;;;;;;;9.7;2;;;;;;;;;;;;;-77
2023/03/24 21:14:30;;;;;;;;;;;;;;;9.26;86.12109;100043.5;;;;-75
2023/03/24 21:19:31;;;;;;;;;;;;;;;9.25;86.39258;100045.2;;;;-75
2023/03/24 21:24:30;;;;;;;;;;;;;;;9.28;86.3125;100043.7;;;;-75
2023/03/24 21:29:30;;;;;;;;;;;;;;;9.28;86.52148;100057.2;;;;-77
2023/03/24 21:34:30;;;;;;;;;;;;;;;9.24;87.04297;100045.9;;;;-75
2023/03/24 21:39:30;;;;;;;;;;;;;;;9.21;86.98242;100044.2;;;;-75
2023/03/24 21:43:50;;;;;;;13.1;2;;;;;;;;;;;;;-75
2023/03/24 21:44:30;;;;;;;;;;;;;;;9.18;87.13965;100039.5;;;;-76
2023/03/24 21:49:30;;;;;;;;;;;;;;;9.16;87.47754;100039.6;;;;-75
2023/03/24 21:54:33;;;;;;;;;;;;;;;9.12;87.61133;100033.2;;;;-75
2023/03/24 21:59:30;;;;;;;;;;;;;;;9.09;87.60742;100031.6;;;;-75
2023/03/24 22:04:30;;;;;;;;;;;;;;;9.09;87.85938;100030.7;;;;-74
2023/03/24 22:09:29;;;;;;;;;;;;;;;9.06;87.9082;100037.4;;;;-75
2023/03/24 22:13:48;;;;;;;10.4;1.7;;;;;;;;;;;;;-75
2023/03/24 22:14:38;;;;;;;;;;;;;;;9.07;87.72266;100032.2;;;;-74
2023/03/24 22:19:29;;;;;;;;;;;;;;;9.11;87.60938;100039.7;;;;-74
2023/03/24 22:24:31;;;;;;;;;;;;;;;9.08;87.39648;100032.2;;;;-75
2023/03/24 22:29:30;;;;;;;;;;;;;;;9.07;87.50293;100043.1;;;;-75
2023/03/24 22:34:33;;;;;;;;;;;;;;;9.1;87.8623;100034.3;;;;-76
2023/03/24 22:39:30;;;;;;;;;;;;;;;9.09;87.99121;100023.2;;;;-76
2023/03/24 22:43:49;;;;;;;15.1;1.9;;;;;;;;;;;;;-75
2023/03/24 22:44:32;;;;;;;;;;;;;;;9.11;87.77637;100033.8;;;;-76
2023/03/24 22:49:31;;;;;;;;;;;;;;;9.15;88.10059;100033.3;;;;-75
2023/03/24 22:54:32;;;;;;;;;;;;;;;9.17;88.1709;100030;;;;-75
2023/03/24 22:59:43;;;;;;;;;;;;;;;9.17;88.65625;100046.2;;;;-75
2023/03/24 23:04:35;;;;;;;;;;;;;;;9.14;88.91504;100037.8;;;;-76
2023/03/24 23:13:34;;;;;;;;;;;;;;;9.11;89.50293;100059.5;;;;-76
2023/03/24 23:13:51;;;;;;;14.1;1.9;;;;;;;;;;;;;-75
2023/03/24 23:18:30;;;;;;;;;;;;;;;9.09;89.54395;100045.3;;;;-76
2023/03/24 23:23:27;;;;;;;;;;;;;;;9.08;89.60742;100044.7;;;;-76
2023/03/24 23:28:29;;;;;;;;;;;;;;;9.06;89.93164;100034.6;;;;-74
2023/03/24 23:33:27;;;;;;;;;;;;;;;9.06;89.84375;100042.1;;;;-74
2023/03/24 23:38:27;;;;;;;;;;;;;;;9.05;89.58887;100029.1;;;;-75
2023/03/24 23:43:28;;;;;;;;;;;;;;;9.03;89.72852;100039.1;;;;-76
2023/03/24 23:43:54;;;;;;;13.1;2;;;;;;;;;;;;;-77
2023/03/24 23:48:28;;;;;;;;;;;;;;;9;89.77734;100043;;;;-78
2023/03/24 23:53:28;;;;;;;;;;;;;;;9;89.89648;100050.9;;;;-76
